Capon Springs, WV

19:57 EDT le 21 octobre 2014 (GMT -0400)
Greater Cumberland Regional | Change Station
CLOSE
Current Station
Aéroport
Location: Cumberland,
Altitude: 236 m
Stations météo à proximité

Alt. 236 m 39.62 °N, 78.76 °W | Updated 8 minutes ago

Couvert
Couvert
11 ° C
Paraît 11 ° C
N
0
Vent Variable Vent de Nord

Aujourd'hui
Haut(e) -- | Bas -- ° C
--% Risque de précip.
Hier
Haut(e) -- | Bas -- ° C
Precip. -- mm
7:29 AM 6:26 PM
Lune descendante, 4% visible
Pression 1014 hPa
Visibilité 11.3 Kilomètres
Nuages Nuages épars 2286 m
Nuages épars 2743 m
Point de rosée 10 ° C
Humidité 94%
Précipitations 0.0 mm
Profondeur de la couche neigeuse Non disponible.
UV 0 sur 12
Pollen 1.70 sur 12
Qualité de l'air Non disponible.
Flu Activity Sporadic
METAR KCBE 212349Z AUTO 00000KT 7SM SCT075 SCT090 11/10 A2996 RMK AO1

More Conditions Fewer Conditions

Pression 1014 hPa
Visibilité 11.3 Kilomètres
Nuages Nuages épars 2286 m
Nuages épars 2743 m
Point de rosée 10 ° C
Humidité 94%
Précipitations 0.0 mm
Profondeur de la couche neigeuse Non disponible.
UV 0 sur 12
Pollen 1.70 sur 12
Qualité de l'air Non disponible.
Flu Activity Sporadic
METAR KCBE 212349Z AUTO 00000KT 7SM SCT075 SCT090 11/10 A2996 RMK AO1

More Conditions Fewer Conditions

10-Day Weather Forecast

Almanac

Astronomie

Oct. 21, 2014 Lever Coucher
Temps réel 07:29 EDT 18:26 EDT
Crépuscule civil 07:02 EDT 18:53 EDT
Crépuscule nautique 06:31 EDT 19:25 EDT
Crépuscule astronomique 06:00 EDT 19:56 EDT
Lune 05:13 EDT 17:19 EDT
Durée de lumière visible 11h 51m
Longueur du jour
10h 57m
Tomorrow will be 2m 24s shorter.
Lune descendante, 4% of the Moon is Illuminated
Aujourd'hui
Lune descendante
Oct 23
Nouveau
Oct 30
Premier quartier
Nov 6
Pleine lune
Nov 14
Dernier quartier

Extrêmes aujourd'hui

State Highs State Lows

Community

WunderPhotos

Upload Photos

1,763,821 Photos téléchargées !

Nearby

Épaisseur de neige

Station Depth Altitude
Pas de nouvelles chutes de neige

Activité sismique

Ville Distance Mag. Time & Date
No recent earthquake activity has been reported nearby.
Minimum magnitude displayed is 2.5.

Températures des eaux côtières

Lieu Température
Aucun rapport de station

Stations météo à proximité